NCAR-RAP Real-Time Weather Data

Output produced by METARs form (24 April 2018  16:22 UTC)
found at http://weather.rap.ucar.edu/surface/
 
RJBB 241609Z AUTO 14008KT 3400 -RA BR FEW014 BKN021 OVC029 //////TCU 19/18 Q1000 RMK A2955 TCU OHD MOV UNKNOWN AND 35KM S MOV NE
 
 
RJBE 241200Z VRB06KT 9999 -SHRA FEW012 BKN020 18/17 Q1005
 
 
RJOA 241300Z 35016KT 3000 SHRA BCFG BR FEW000 SCT010 BKN020 14/13 Q1004
 
RJOB 241200Z 35007KT 3500 SHRA BR BCFG FEW000 SCT005 BKN030 17/16 Q1004
 
RJOC 241100Z 30012KT 6000 -SHRA FEW003 BKN007 BKN015 15/14 Q1005
 
RJOH 241600Z 28006KT 9999 -SHRA FEW005 BKN008 OVC015 13/11 Q1006
 
RJOI 241555Z 04005KT 9999 -SHRA FEW015 BKN025 BKN090 17/13 A2965 RMK SLP040 P0000 T01670133
 
RJOK 241100Z 16014KT 5000 -SHRA BR FEW008 SCT010 BKN020 20/19 Q1005
 
RJOM 241216Z 33007KT 300V360 2000 R14/2000N +SHRA BR PRFG FEW002 BKN008 BKN020 17/17 Q1003 RMK 1ST002 5ST008 6CU020 A2962 1000NW-N FG BANK NW-N RI++
 
RJOO 241100Z 07007KT 040V100 8000 -SHRA FEW005 SCT025 BKN050 18/16 Q1006 RMK 1ST005 4CU025 6SC050 A2971
 
RJOR 241219Z 27003KT 3000 -SHRA BR FEW004 SCT008 BKN015 17/15 Q1004 RMK 1ST004 3ST008 5CU015 A2966
 
RJOT 241225Z 26003KT 240V310 2500 SHRA BR FEW001 SCT004 BKN009 18/18 Q1004 RMK 1ST001 3ST004 5ST009 A2965
 
 
 
RJDC 241200Z 34005KT 260V050 9999 -SHRA FEW008 SCT015 BKN035 14/13 Q1005
 
RJDT 241100Z 02012G24KT 330V070 9999 -SHRA FEW008 BKN010 12/10 Q1008
 
 
RJFF 241603Z AUTO 35008KT 4900 -RA BR SCT009 OVC010 14/12 Q1007 RMK A2975
 
 
RJFK 241200Z 24009KT 200V270 4000 -SHRA BR FEW002 BKN004 BKN007 19/19 Q1004 RMK 1ST002 5ST004 6ST007 A2966
 
RJFO 241300Z 32010KT 300V010 9999 -SHRA FEW010 BKN035 15/14 Q1003
 
RJFR 241600Z 33006KT 290V010 9999 FEW010 SCT020 BKN030 14/11 Q1006
 
RJFS 241600Z 36005KT 9999 FEW015 BKN020 14/13 Q1006
 
RJFT 241200Z 31006KT 1800 SHRA BR BCFG FEW001 SCT003 BKN004 15/15 Q1004
 
RJFU 241238Z 35010KT 9999 FEW010 SCT035 BKN080 15/13 Q1005 RMK 1CU010 3CU035 6AC080 A2969
 
RJFM 241200Z 21007KT 9999 FEW010 SCT030 BKN045 23/21 Q1002